首页
METAR-TAF:

METAR-TAF

机场 :

努庫斯機場

努库斯, 乌兹别克斯坦

纬度: 42-28-48N, 经度: 059-37-48E, 海拔: 77米

当前天气观测

该预报发布于27分钟前的01:30 UTC
风速2节,风向东转东北
温度 23°C
湿度 31%
气压 1011 hPa
能见度10公里或以上
1500米以下无云,无积雨云

METAR: UTNN 310130Z 07002KT CAVOK 23/05 Q1011 R33/CLRD60 NOSIG

时间: 06:57 (01:57 UTC)

预报

该预报发布于2小时和57分钟前的23:00 UTC
预报有效从31日的 00点(UTC)到 31日的 24点(UTC)
风速4节,风向多变
能见度10公里或以上
1500米以下无云,无积雨云

TAF: UTNN 302300Z 3100/3124 VRB04KT CAVOK TX40/3111Z TN21/3124Z

超过4000个机场的气象观测和天气预报(METAR&TAF报告)。

可查询的气象台以黄色和红色小点在地图上表示。

将鼠标移到小点上方,可查看气象台名称。

然后点击查看天气观测和预报。

如需切换地图:点击带黑十字的绿色按钮放大地图;点击带横线的绿色按钮缩小地图;或者点击绿色箭头查看邻近地区的地图。


METAR-TAF: